Home   Weather   India   Sikar   Past weeks
Flag for India

Past Weather in Sikar, Rajasthan, India — Yesterday and Last 2 Weeks

Currently: 64 °F. Clear. (Weather station: Jaipur / Sanganer, India). See more current weather

Past Weather in Sikar — Graph

°F

Sikar Temperature Yesterday

Maximum temperature yesterday: 79 °F (at 2:30 pm)
Minimum temperature yesterday: 54 °F (at 6:30 am)
Average temperature yesterday: 65 °F

High & Low Weather Summary for the Past Weeks

 TemperatureHumidityPressure
High82 °F (Nov 21, 1:30 pm)88% (Nov 30, 4:00 am)30.33 "Hg (Nov 30, 4:00 am)
Low52 °F (Nov 24, 7:00 am)14% (Nov 23, 2:30 pm)29.86 "Hg (Nov 27, 3:30 pm)
Average67 °F51%30.02 "Hg
* Reported Nov 17 8:30 am — Dec 2 8:30 am, Sikar. Weather by CustomWeather, © 2022

Note: Actual official high and low records may vary slightly from our data, if they occured in-between our weather recording intervals... More about our weather records

Sikar Weather History for the Previous 24 Hours

Scroll right to see more
 ConditionsComfort  
Time TempWeatherWind HumidityBarometerVisibility
8:30 am
Fri, Dec 2
61 °FClear.No wind83%30.04 "Hg1 mi
8:00 am57 °FClear.No wind82%30.04 "Hg1 mi
7:00 am54 °FClear.No wind82%30.01 "Hg1 mi
6:30 am52 °FClear.No wind88%29.98 "Hg1 mi
5:00 am54 °FClear.2 mph88%29.98 "Hg1 mi
4:30 am54 °FClear.2 mph88%29.98 "Hg1 mi
3:30 am55 °FClear.No wind82%29.98 "Hg1 mi
3:00 am55 °FClear.No wind82%29.98 "Hg1 mi
2:30 am55 °FHaze.No wind82%29.98 "Hg1 mi
1:30 am55 °FHaze.No wind82%29.98 "Hg1 mi
1:00 am57 °FHaze.No wind77%30.01 "Hg1 mi
12:30 am57 °FHaze.2 mph77%30.01 "Hg1 mi
12:00 am59 °FHaze.2 mph72%30.01 "Hg1 mi
11:30 pm
Thu, Dec 1
59 °FHaze.2 mph77%30.01 "Hg1 mi
11:00 pm59 °FHaze.2 mph72%30.01 "Hg1 mi
10:30 pm61 °FHaze.2 mph72%30.04 "Hg1 mi
9:30 pm63 °FHaze.2 mph68%30.04 "Hg1 mi
9:00 pm63 °FHaze.2 mph68%30.01 "Hg1 mi
8:30 pm64 °FHaze.No wind64%30.01 "Hg1 mi
8:00 pm66 °FHaze.No wind60%30.01 "Hg1 mi
7:30 pm66 °FHaze.No wind60%30.01 "Hg1 mi
6:30 pm68 °FHaze.2 mph53%29.98 "Hg2 mi
6:00 pm70 °FHaze.No wind46%29.98 "Hg2 mi
5:30 pm73 °FHaze.3 mph41%29.98 "Hg2 mi
5:00 pm75 °FHaze.3 mph36%29.95 "Hg2 mi
4:30 pm77 °FHaze.3 mph34%29.95 "Hg2 mi
3:30 pm77 °FHaze.3 mph34%29.98 "Hg2 mi
3:00 pm79 °FHaze.3 mph30%29.98 "Hg2 mi
2:30 pm79 °FHaze.3 mph32%29.98 "Hg2 mi
2:00 pm77 °FHaze.No wind34%30.01 "Hg2 mi
1:30 pm77 °FHaze.3 mph36%30.01 "Hg2 mi
1:00 pm77 °FHaze.3 mph36%30.04 "Hg2 mi
12:30 pm75 °FHaze.5 mph39%30.04 "Hg2 mi
11:30 am75 °FHaze.5 mph39%30.07 "Hg2 mi
11:00 am73 °FClear.2 mph44%30.09 "Hg1 mi
10:30 am73 °FClear.2 mph47%30.09 "Hg1 mi
10:00 am72 °FClear.3 mph57%30.09 "Hg1 mi
9:30 am70 °FClear.2 mph60%30.09 "Hg1 mi
9:00 am64 °FClear.1 mph73%30.09 "Hg1 mi
Weather by CustomWeather, © 2022

See weather overview